Terminal Aerodrome Forecast
Issued by NWS North Platte, NE

Home | Current Version | Previous Version | Graphics & Text | Print | Product List | Glossary On
Versions: 1 2 3 4 5 6 7 8 9 10 11 12 13 14 15 16
000
FTUS43 KLBF 190200 AAC
TAFVTN
TAF AMD
KVTN 190203Z 1902/1924 VRB04KT 5SM BR FEW150
      TEMPO 1902/1905 15004KT 1SM BR SKC
     FM191400 24006KT 5SM BR SCT150
     FM191600 25008KT P6SM SCT150=

USA.gov is the U.S. government's official web portal to all federal, state and local government web resources and services.